sensor_id;sensor_type;location;lat;lon;timestamp;P1;durP1;ratioP1;P2;durP2;ratioP2
78840;SDS011;68379;47.190;27.558;2024-03-02T00:02:20;19.70;;;10.50;;
78840;SDS011;68379;47.190;27.558;2024-03-02T00:04:52;21.20;;;10.50;;
78840;SDS011;68379;47.190;27.558;2024-03-02T00:07:24;19.00;;;9.60;;
78840;SDS011;68379;47.190;27.558;2024-03-02T00:09:55;19.20;;;9.80;;
78840;SDS011;68379;47.190;27.558;2024-03-02T00:12:27;20.00;;;10.70;;
78840;SDS011;68379;47.190;27.558;2024-03-02T00:14:59;21.60;;;10.60;;
78840;SDS011;68379;47.190;27.558;2024-03-02T00:17:32;22.20;;;10.90;;
78840;SDS011;68379;47.190;27.558;2024-03-02T00:20:05;21.70;;;10.90;;
78840;SDS011;68379;47.190;27.558;2024-03-02T00:22:46;18.20;;;9.90;;
78840;SDS011;68379;47.190;27.558;2024-03-02T00:25:18;19.70;;;10.30;;
78840;SDS011;68379;47.190;27.558;2024-03-02T00:27:49;16.90;;;9.10;;
78840;SDS011;68379;47.190;27.558;2024-03-02T00:30:34;20.50;;;10.50;;
78840;SDS011;68379;47.190;27.558;2024-03-02T00:33:35;19.40;;;10.60;;
78840;SDS011;68379;47.190;27.558;2024-03-02T00:36:10;21.50;;;10.40;;
78840;SDS011;68379;47.190;27.558;2024-03-02T00:38:46;20.00;;;11.40;;
78840;SDS011;68379;47.190;27.558;2024-03-02T00:41:21;21.30;;;11.00;;
78840;SDS011;68379;47.190;27.558;2024-03-02T00:43:56;21.50;;;10.10;;
78840;SDS011;68379;47.190;27.558;2024-03-02T00:46:34;17.10;;;9.50;;
78840;SDS011;68379;47.190;27.558;2024-03-02T00:49:15;24.30;;;11.20;;
78840;SDS011;68379;47.190;27.558;2024-03-02T00:51:51;20.50;;;10.20;;
78840;SDS011;68379;47.190;27.558;2024-03-02T00:54:25;20.80;;;11.00;;
78840;SDS011;68379;47.190;27.558;2024-03-02T00:56:57;19.60;;;9.70;;
78840;SDS011;68379;47.190;27.558;2024-03-02T00:59:29;19.70;;;10.20;;
78840;SDS011;68379;47.190;27.558;2024-03-02T01:02:00;21.30;;;10.10;;
78840;SDS011;68379;47.190;27.558;2024-03-02T01:04:32;21.10;;;10.50;;
78840;SDS011;68379;47.190;27.558;2024-03-02T01:07:04;19.30;;;10.00;;
78840;SDS011;68379;47.190;27.558;2024-03-02T01:09:36;21.00;;;10.20;;
78840;SDS011;68379;47.190;27.558;2024-03-02T01:12:09;19.70;;;10.50;;
78840;SDS011;68379;47.190;27.558;2024-03-02T01:14:41;21.10;;;10.00;;
78840;SDS011;68379;47.190;27.558;2024-03-02T01:17:13;25.50;;;12.00;;
78840;SDS011;68379;47.190;27.558;2024-03-02T01:19:44;19.60;;;10.80;;
78840;SDS011;68379;47.190;27.558;2024-03-02T01:22:16;20.70;;;10.30;;
78840;SDS011;68379;47.190;27.558;2024-03-02T01:24:53;21.60;;;10.70;;
78840;SDS011;68379;47.190;27.558;2024-03-02T01:27:25;21.80;;;9.80;;
78840;SDS011;68379;47.190;27.558;2024-03-02T01:29:56;18.00;;;9.90;;
78840;SDS011;68379;47.190;27.558;2024-03-02T01:32:28;20.60;;;11.10;;
78840;SDS011;68379;47.190;27.558;2024-03-02T01:35:00;20.70;;;11.10;;
78840;SDS011;68379;47.190;27.558;2024-03-02T01:37:31;22.60;;;10.70;;
78840;SDS011;68379;47.190;27.558;2024-03-02T01:40:04;20.90;;;10.00;;
78840;SDS011;68379;47.190;27.558;2024-03-02T01:42:37;18.10;;;9.80;;
78840;SDS011;68379;47.190;27.558;2024-03-02T01:45:09;23.00;;;11.50;;
78840;SDS011;68379;47.190;27.558;2024-03-02T01:47:41;25.50;;;10.60;;
78840;SDS011;68379;47.190;27.558;2024-03-02T01:50:13;17.70;;;9.80;;
78840;SDS011;68379;47.190;27.558;2024-03-02T01:52:44;25.90;;;10.70;;
78840;SDS011;68379;47.190;27.558;2024-03-02T01:55:16;20.20;;;11.20;;
78840;SDS011;68379;47.190;27.558;2024-03-02T01:57:48;23.50;;;10.70;;
78840;SDS011;68379;47.190;27.558;2024-03-02T02:00:20;19.70;;;10.00;;
78840;SDS011;68379;47.190;27.558;2024-03-02T02:05:25;18.50;;;9.40;;
78840;SDS011;68379;47.190;27.558;2024-03-02T02:07:59;20.40;;;10.30;;
78840;SDS011;68379;47.190;27.558;2024-03-02T02:10:33;18.70;;;9.00;;
78840;SDS011;68379;47.190;27.558;2024-03-02T02:13:05;21.40;;;10.50;;
78840;SDS011;68379;47.190;27.558;2024-03-02T02:15:37;21.00;;;10.40;;
78840;SDS011;68379;47.190;27.558;2024-03-02T02:18:08;19.60;;;11.40;;
78840;SDS011;68379;47.190;27.558;2024-03-02T02:20:40;26.00;;;10.80;;
78840;SDS011;68379;47.190;27.558;2024-03-02T02:23:14;21.50;;;10.50;;
78840;SDS011;68379;47.190;27.558;2024-03-02T02:25:47;22.40;;;10.50;;
78840;SDS011;68379;47.190;27.558;2024-03-02T02:28:19;18.70;;;9.70;;
78840;SDS011;68379;47.190;27.558;2024-03-02T02:30:50;19.20;;;9.90;;
78840;SDS011;68379;47.190;27.558;2024-03-02T02:33:25;20.70;;;10.50;;
78840;SDS011;68379;47.190;27.558;2024-03-02T02:35:57;20.20;;;10.20;;
78840;SDS011;68379;47.190;27.558;2024-03-02T02:38:30;21.20;;;9.70;;
78840;SDS011;68379;47.190;27.558;2024-03-02T02:41:06;21.60;;;11.30;;
78840;SDS011;68379;47.190;27.558;2024-03-02T02:43:38;23.50;;;10.40;;
78840;SDS011;68379;47.190;27.558;2024-03-02T02:46:09;19.00;;;10.30;;
78840;SDS011;68379;47.190;27.558;2024-03-02T02:48:41;20.80;;;10.00;;
78840;SDS011;68379;47.190;27.558;2024-03-02T02:51:14;18.50;;;9.80;;
78840;SDS011;68379;47.190;27.558;2024-03-02T02:53:47;25.50;;;11.20;;
78840;SDS011;68379;47.190;27.558;2024-03-02T02:56:19;21.30;;;10.40;;
78840;SDS011;68379;47.190;27.558;2024-03-02T02:58:52;19.70;;;10.00;;
78840;SDS011;68379;47.190;27.558;2024-03-02T03:01:24;21.30;;;10.70;;
78840;SDS011;68379;47.190;27.558;2024-03-02T03:03:56;19.70;;;9.80;;
78840;SDS011;68379;47.190;27.558;2024-03-02T03:06:27;18.50;;;10.60;;
78840;SDS011;68379;47.190;27.558;2024-03-02T03:08:59;16.60;;;9.60;;
78840;SDS011;68379;47.190;27.558;2024-03-02T03:11:31;24.20;;;11.00;;
78840;SDS011;68379;47.190;27.558;2024-03-02T03:14:04;25.00;;;10.30;;
78840;SDS011;68379;47.190;27.558;2024-03-02T03:16:36;23.20;;;11.30;;
78840;SDS011;68379;47.190;27.558;2024-03-02T03:21:41;17.90;;;8.70;;
78840;SDS011;68379;47.190;27.558;2024-03-02T03:24:14;20.10;;;10.30;;
78840;SDS011;68379;47.190;27.558;2024-03-02T03:26:46;21.00;;;9.50;;
78840;SDS011;68379;47.190;27.558;2024-03-02T03:29:19;19.20;;;10.00;;
78840;SDS011;68379;47.190;27.558;2024-03-02T03:31:53;20.60;;;10.30;;
78840;SDS011;68379;47.190;27.558;2024-03-02T03:34:24;22.90;;;10.60;;
78840;SDS011;68379;47.190;27.558;2024-03-02T03:36:57;24.40;;;10.20;;
78840;SDS011;68379;47.190;27.558;2024-03-02T03:39:29;15.30;;;8.40;;
78840;SDS011;68379;47.190;27.558;2024-03-02T03:42:01;18.60;;;9.60;;
78840;SDS011;68379;47.190;27.558;2024-03-02T03:44:33;20.80;;;10.30;;
78840;SDS011;68379;47.190;27.558;2024-03-02T03:47:07;18.10;;;9.60;;
78840;SDS011;68379;47.190;27.558;2024-03-02T03:49:39;18.50;;;9.90;;
78840;SDS011;68379;47.190;27.558;2024-03-02T03:52:11;18.10;;;9.70;;
78840;SDS011;68379;47.190;27.558;2024-03-02T03:54:42;20.40;;;9.60;;
78840;SDS011;68379;47.190;27.558;2024-03-02T03:57:14;21.00;;;10.30;;
78840;SDS011;68379;47.190;27.558;2024-03-02T03:59:49;18.80;;;9.00;;
78840;SDS011;68379;47.190;27.558;2024-03-02T04:02:20;16.30;;;8.70;;
78840;SDS011;68379;47.190;27.558;2024-03-02T04:04:54;17.90;;;8.60;;
78840;SDS011;68379;47.190;27.558;2024-03-02T04:07:25;16.70;;;8.80;;
78840;SDS011;68379;47.190;27.558;2024-03-02T04:09:57;15.30;;;8.90;;
78840;SDS011;68379;47.190;27.558;2024-03-02T04:12:29;18.90;;;9.10;;
78840;SDS011;68379;47.190;27.558;2024-03-02T04:15:01;18.00;;;8.60;;
78840;SDS011;68379;47.190;27.558;2024-03-02T04:17:34;16.60;;;9.10;;
78840;SDS011;68379;47.190;27.558;2024-03-02T04:20:07;17.90;;;8.90;;
78840;SDS011;68379;47.190;27.558;2024-03-02T04:22:40;16.20;;;9.10;;
78840;SDS011;68379;47.190;27.558;2024-03-02T04:25:12;16.20;;;8.30;;
78840;SDS011;68379;47.190;27.558;2024-03-02T04:27:45;16.80;;;8.30;;
78840;SDS011;68379;47.190;27.558;2024-03-02T04:30:18;18.70;;;8.50;;
78840;SDS011;68379;47.190;27.558;2024-03-02T04:32:51;17.50;;;9.30;;
78840;SDS011;68379;47.190;27.558;2024-03-02T04:35:23;20.80;;;9.10;;
78840;SDS011;68379;47.190;27.558;2024-03-02T04:37:55;17.50;;;8.90;;
78840;SDS011;68379;47.190;27.558;2024-03-02T04:40:28;17.40;;;8.90;;
78840;SDS011;68379;47.190;27.558;2024-03-02T04:43:01;19.10;;;8.50;;
78840;SDS011;68379;47.190;27.558;2024-03-02T04:45:36;18.70;;;9.40;;
78840;SDS011;68379;47.190;27.558;2024-03-02T04:48:08;18.00;;;9.70;;
78840;SDS011;68379;47.190;27.558;2024-03-02T04:50:40;20.30;;;9.00;;
78840;SDS011;68379;47.190;27.558;2024-03-02T04:53:11;19.70;;;8.90;;
78840;SDS011;68379;47.190;27.558;2024-03-02T04:55:45;18.50;;;9.10;;
78840;SDS011;68379;47.190;27.558;2024-03-02T04:58:48;19.40;;;8.60;;
78840;SDS011;68379;47.190;27.558;2024-03-02T05:01:20;18.10;;;9.60;;
78840;SDS011;68379;47.190;27.558;2024-03-02T05:03:56;16.90;;;9.00;;
78840;SDS011;68379;47.190;27.558;2024-03-02T05:06:28;20.10;;;10.10;;
78840;SDS011;68379;47.190;27.558;2024-03-02T05:09:01;22.80;;;10.90;;
78840;SDS011;68379;47.190;27.558;2024-03-02T05:11:33;19.40;;;9.50;;
78840;SDS011;68379;47.190;27.558;2024-03-02T05:14:40;22.70;;;9.10;;
78840;SDS011;68379;47.190;27.558;2024-03-02T05:17:11;21.10;;;9.60;;
78840;SDS011;68379;47.190;27.558;2024-03-02T05:19:43;15.20;;;9.20;;
78840;SDS011;68379;47.190;27.558;2024-03-02T05:22:15;18.80;;;9.70;;
78840;SDS011;68379;47.190;27.558;2024-03-02T05:24:47;25.30;;;9.50;;
78840;SDS011;68379;47.190;27.558;2024-03-02T05:27:19;22.90;;;10.20;;
78840;SDS011;68379;47.190;27.558;2024-03-02T05:29:51;19.90;;;10.50;;
78840;SDS011;68379;47.190;27.558;2024-03-02T05:32:23;17.70;;;8.70;;
78840;SDS011;68379;47.190;27.558;2024-03-02T05:34:54;15.30;;;8.90;;
78840;SDS011;68379;47.190;27.558;2024-03-02T05:37:26;22.30;;;9.60;;
78840;SDS011;68379;47.190;27.558;2024-03-02T05:39:57;18.00;;;9.50;;
78840;SDS011;68379;47.190;27.558;2024-03-02T05:42:29;20.30;;;10.80;;
78840;SDS011;68379;47.190;27.558;2024-03-02T05:45:01;19.80;;;9.80;;
78840;SDS011;68379;47.190;27.558;2024-03-02T05:47:33;22.50;;;10.30;;
78840;SDS011;68379;47.190;27.558;2024-03-02T05:50:05;19.10;;;9.80;;
78840;SDS011;68379;47.190;27.558;2024-03-02T05:52:38;19.70;;;10.00;;
78840;SDS011;68379;47.190;27.558;2024-03-02T05:55:09;22.90;;;10.20;;
78840;SDS011;68379;47.190;27.558;2024-03-02T05:57:41;24.70;;;10.30;;
78840;SDS011;68379;47.190;27.558;2024-03-02T06:00:30;19.90;;;9.60;;
78840;SDS011;68379;47.190;27.558;2024-03-02T06:03:05;15.90;;;8.80;;
78840;SDS011;68379;47.190;27.558;2024-03-02T06:05:37;24.00;;;10.20;;
78840;SDS011;68379;47.190;27.558;2024-03-02T06:08:10;18.70;;;9.70;;
78840;SDS011;68379;47.190;27.558;2024-03-02T06:10:41;17.00;;;9.40;;
78840;SDS011;68379;47.190;27.558;2024-03-02T06:13:13;17.40;;;8.80;;
78840;SDS011;68379;47.190;27.558;2024-03-02T06:15:45;23.20;;;11.00;;
78840;SDS011;68379;47.190;27.558;2024-03-02T06:18:17;17.90;;;9.30;;
78840;SDS011;68379;47.190;27.558;2024-03-02T06:20:49;21.60;;;9.70;;
78840;SDS011;68379;47.190;27.558;2024-03-02T06:23:21;22.30;;;10.50;;
78840;SDS011;68379;47.190;27.558;2024-03-02T06:26:04;18.60;;;9.50;;
78840;SDS011;68379;47.190;27.558;2024-03-02T06:28:38;18.20;;;9.10;;
78840;SDS011;68379;47.190;27.558;2024-03-02T06:31:11;15.30;;;8.10;;
78840;SDS011;68379;47.190;27.558;2024-03-02T06:33:43;21.30;;;9.90;;
78840;SDS011;68379;47.190;27.558;2024-03-02T06:36:15;18.70;;;9.70;;
78840;SDS011;68379;47.190;27.558;2024-03-02T06:38:46;16.10;;;9.40;;
78840;SDS011;68379;47.190;27.558;2024-03-02T06:41:18;19.00;;;10.40;;
78840;SDS011;68379;47.190;27.558;2024-03-02T06:43:50;18.80;;;9.30;;
78840;SDS011;68379;47.190;27.558;2024-03-02T06:46:27;17.10;;;9.50;;
78840;SDS011;68379;47.190;27.558;2024-03-02T06:48:59;14.70;;;8.70;;
78840;SDS011;68379;47.190;27.558;2024-03-02T06:51:33;19.80;;;9.60;;
78840;SDS011;68379;47.190;27.558;2024-03-02T06:54:05;18.20;;;9.30;;
78840;SDS011;68379;47.190;27.558;2024-03-02T06:56:37;21.00;;;9.80;;
78840;SDS011;68379;47.190;27.558;2024-03-02T06:59:11;19.10;;;9.30;;
78840;SDS011;68379;47.190;27.558;2024-03-02T07:01:42;18.90;;;9.80;;
78840;SDS011;68379;47.190;27.558;2024-03-02T07:04:14;20.80;;;9.40;;
78840;SDS011;68379;47.190;27.558;2024-03-02T07:06:46;18.40;;;8.90;;
78840;SDS011;68379;47.190;27.558;2024-03-02T07:09:19;19.90;;;10.40;;
78840;SDS011;68379;47.190;27.558;2024-03-02T07:11:51;19.10;;;9.60;;
78840;SDS011;68379;47.190;27.558;2024-03-02T07:14:22;20.50;;;9.20;;
78840;SDS011;68379;47.190;27.558;2024-03-02T07:17:15;16.50;;;9.60;;
78840;SDS011;68379;47.190;27.558;2024-03-02T07:19:47;19.60;;;9.50;;
78840;SDS011;68379;47.190;27.558;2024-03-02T07:22:18;16.60;;;9.30;;
78840;SDS011;68379;47.190;27.558;2024-03-02T07:24:51;19.20;;;9.80;;
78840;SDS011;68379;47.190;27.558;2024-03-02T07:27:22;20.50;;;11.70;;
78840;SDS011;68379;47.190;27.558;2024-03-02T07:29:54;20.30;;;10.20;;
78840;SDS011;68379;47.190;27.558;2024-03-02T07:32:26;17.60;;;9.90;;
78840;SDS011;68379;47.190;27.558;2024-03-02T07:34:57;18.20;;;9.30;;
78840;SDS011;68379;47.190;27.558;2024-03-02T07:37:29;19.80;;;8.80;;
78840;SDS011;68379;47.190;27.558;2024-03-02T07:40:01;17.30;;;9.70;;
78840;SDS011;68379;47.190;27.558;2024-03-02T07:42:33;18.40;;;9.60;;
78840;SDS011;68379;47.190;27.558;2024-03-02T07:45:05;19.90;;;9.40;;
78840;SDS011;68379;47.190;27.558;2024-03-02T07:47:37;17.10;;;9.10;;
78840;SDS011;68379;47.190;27.558;2024-03-02T07:50:10;18.00;;;8.90;;
78840;SDS011;68379;47.190;27.558;2024-03-02T07:52:42;18.30;;;8.90;;
78840;SDS011;68379;47.190;27.558;2024-03-02T07:55:14;20.00;;;9.60;;
78840;SDS011;68379;47.190;27.558;2024-03-02T07:57:46;23.40;;;11.70;;
78840;SDS011;68379;47.190;27.558;2024-03-02T08:00:19;16.80;;;9.00;;
78840;SDS011;68379;47.190;27.558;2024-03-02T08:02:50;18.70;;;9.50;;
78840;SDS011;68379;47.190;27.558;2024-03-02T08:05:23;19.00;;;10.40;;
78840;SDS011;68379;47.190;27.558;2024-03-02T08:07:55;23.60;;;11.50;;
78840;SDS011;68379;47.190;27.558;2024-03-02T08:10:29;18.50;;;10.00;;
78840;SDS011;68379;47.190;27.558;2024-03-02T08:13:01;21.10;;;10.20;;
78840;SDS011;68379;47.190;27.558;2024-03-02T08:15:33;20.70;;;10.70;;
78840;SDS011;68379;47.190;27.558;2024-03-02T08:18:06;16.80;;;10.20;;
78840;SDS011;68379;47.190;27.558;2024-03-02T08:20:37;19.50;;;10.20;;
78840;SDS011;68379;47.190;27.558;2024-03-02T08:23:09;18.70;;;10.10;;
78840;SDS011;68379;47.190;27.558;2024-03-02T08:25:41;18.80;;;9.80;;
78840;SDS011;68379;47.190;27.558;2024-03-02T08:28:13;19.30;;;10.00;;
78840;SDS011;68379;47.190;27.558;2024-03-02T08:30:45;20.60;;;9.80;;
78840;SDS011;68379;47.190;27.558;2024-03-02T08:33:17;16.40;;;10.60;;
78840;SDS011;68379;47.190;27.558;2024-03-02T08:35:48;19.90;;;9.30;;
78840;SDS011;68379;47.190;27.558;2024-03-02T08:38:20;19.50;;;10.90;;
78840;SDS011;68379;47.190;27.558;2024-03-02T08:40:51;19.80;;;10.10;;
78840;SDS011;68379;47.190;27.558;2024-03-02T08:43:24;18.30;;;10.20;;
78840;SDS011;68379;47.190;27.558;2024-03-02T08:45:56;22.60;;;10.70;;
78840;SDS011;68379;47.190;27.558;2024-03-02T08:48:27;18.60;;;10.60;;
78840;SDS011;68379;47.190;27.558;2024-03-02T08:51:00;23.70;;;11.60;;
78840;SDS011;68379;47.190;27.558;2024-03-02T08:53:34;26.20;;;11.50;;
78840;SDS011;68379;47.190;27.558;2024-03-02T08:56:06;22.40;;;11.70;;
78840;SDS011;68379;47.190;27.558;2024-03-02T08:58:37;19.70;;;10.10;;
78840;SDS011;68379;47.190;27.558;2024-03-02T09:01:09;20.40;;;10.10;;
78840;SDS011;68379;47.190;27.558;2024-03-02T09:03:41;19.70;;;10.00;;
78840;SDS011;68379;47.190;27.558;2024-03-02T09:06:12;21.70;;;11.90;;
78840;SDS011;68379;47.190;27.558;2024-03-02T09:08:45;21.20;;;10.30;;
78840;SDS011;68379;47.190;27.558;2024-03-02T09:11:20;22.70;;;10.50;;
78840;SDS011;68379;47.190;27.558;2024-03-02T09:13:51;19.70;;;10.30;;
78840;SDS011;68379;47.190;27.558;2024-03-02T09:16:25;21.20;;;11.20;;
78840;SDS011;68379;47.190;27.558;2024-03-02T09:18:59;20.40;;;10.80;;
78840;SDS011;68379;47.190;27.558;2024-03-02T09:21:31;25.40;;;13.00;;
78840;SDS011;68379;47.190;27.558;2024-03-02T09:24:03;20.60;;;11.20;;
78840;SDS011;68379;47.190;27.558;2024-03-02T09:26:35;24.00;;;10.80;;
78840;SDS011;68379;47.190;27.558;2024-03-02T09:29:06;23.10;;;11.20;;
78840;SDS011;68379;47.190;27.558;2024-03-02T09:31:40;23.00;;;11.80;;
78840;SDS011;68379;47.190;27.558;2024-03-02T09:36:42;22.00;;;11.70;;
78840;SDS011;68379;47.190;27.558;2024-03-02T09:39:14;26.80;;;12.10;;
78840;SDS011;68379;47.190;27.558;2024-03-02T09:41:46;25.80;;;13.10;;
78840;SDS011;68379;47.190;27.558;2024-03-02T09:44:18;27.80;;;12.30;;
78840;SDS011;68379;47.190;27.558;2024-03-02T09:46:50;27.00;;;11.70;;
78840;SDS011;68379;47.190;27.558;2024-03-02T09:49:22;21.80;;;11.30;;
78840;SDS011;68379;47.190;27.558;2024-03-02T09:51:54;23.60;;;12.00;;
78840;SDS011;68379;47.190;27.558;2024-03-02T09:54:26;23.50;;;12.30;;
78840;SDS011;68379;47.190;27.558;2024-03-02T09:56:58;29.50;;;13.70;;
78840;SDS011;68379;47.190;27.558;2024-03-02T09:59:30;22.70;;;11.70;;
78840;SDS011;68379;47.190;27.558;2024-03-02T10:02:01;23.60;;;11.90;;
78840;SDS011;68379;47.190;27.558;2024-03-02T10:04:35;24.60;;;12.60;;
78840;SDS011;68379;47.190;27.558;2024-03-02T10:07:13;25.80;;;12.90;;
78840;SDS011;68379;47.190;27.558;2024-03-02T10:09:46;20.90;;;11.90;;
78840;SDS011;68379;47.190;27.558;2024-03-02T10:12:20;23.40;;;12.20;;
78840;SDS011;68379;47.190;27.558;2024-03-02T10:14:51;24.60;;;13.50;;
78840;SDS011;68379;47.190;27.558;2024-03-02T10:17:35;25.60;;;12.60;;
78840;SDS011;68379;47.190;27.558;2024-03-02T10:20:23;25.00;;;13.00;;
78840;SDS011;68379;47.190;27.558;2024-03-02T10:22:57;28.40;;;12.60;;
78840;SDS011;68379;47.190;27.558;2024-03-02T10:25:41;27.30;;;13.50;;
78840;SDS011;68379;47.190;27.558;2024-03-02T10:28:13;24.60;;;14.00;;
78840;SDS011;68379;47.190;27.558;2024-03-02T10:30:47;23.60;;;13.00;;
78840;SDS011;68379;47.190;27.558;2024-03-02T10:33:20;26.70;;;12.70;;
78840;SDS011;68379;47.190;27.558;2024-03-02T10:35:53;26.60;;;13.60;;
78840;SDS011;68379;47.190;27.558;2024-03-02T10:38:26;28.00;;;13.70;;
78840;SDS011;68379;47.190;27.558;2024-03-02T10:40:58;24.00;;;12.70;;
78840;SDS011;68379;47.190;27.558;2024-03-02T10:43:32;29.90;;;13.30;;
78840;SDS011;68379;47.190;27.558;2024-03-02T10:46:04;28.30;;;14.70;;
78840;SDS011;68379;47.190;27.558;2024-03-02T10:48:36;28.60;;;13.20;;
78840;SDS011;68379;47.190;27.558;2024-03-02T10:51:10;22.20;;;12.00;;
78840;SDS011;68379;47.190;27.558;2024-03-02T10:53:41;26.50;;;13.60;;
78840;SDS011;68379;47.190;27.558;2024-03-02T10:56:16;29.00;;;12.40;;
78840;SDS011;68379;47.190;27.558;2024-03-02T10:58:59;25.50;;;12.70;;
78840;SDS011;68379;47.190;27.558;2024-03-02T11:01:44;22.90;;;12.30;;
78840;SDS011;68379;47.190;27.558;2024-03-02T11:04:18;24.10;;;12.50;;
78840;SDS011;68379;47.190;27.558;2024-03-02T11:06:51;25.50;;;14.00;;
78840;SDS011;68379;47.190;27.558;2024-03-02T11:09:26;25.30;;;13.30;;
78840;SDS011;68379;47.190;27.558;2024-03-02T11:12:02;26.30;;;14.60;;
78840;SDS011;68379;47.190;27.558;2024-03-02T11:14:40;22.40;;;12.20;;
78840;SDS011;68379;47.190;27.558;2024-03-02T11:17:13;23.70;;;12.80;;
78840;SDS011;68379;47.190;27.558;2024-03-02T11:22:16;27.50;;;13.30;;
78840;SDS011;68379;47.190;27.558;2024-03-02T11:24:51;25.90;;;12.70;;
78840;SDS011;68379;47.190;27.558;2024-03-02T11:30:50;26.70;;;13.90;;
78840;SDS011;68379;47.190;27.558;2024-03-02T11:33:26;24.20;;;12.90;;
78840;SDS011;68379;47.190;27.558;2024-03-02T11:35:58;26.50;;;13.80;;
78840;SDS011;68379;47.190;27.558;2024-03-02T11:38:33;27.80;;;13.80;;
78840;SDS011;68379;47.190;27.558;2024-03-02T11:41:06;32.00;;;15.00;;
78840;SDS011;68379;47.190;27.558;2024-03-02T11:43:39;27.60;;;14.00;;
78840;SDS011;68379;47.190;27.558;2024-03-02T11:46:14;27.70;;;13.50;;
78840;SDS011;68379;47.190;27.558;2024-03-02T11:48:46;28.30;;;13.30;;
78840;SDS011;68379;47.190;27.558;2024-03-02T11:51:18;26.60;;;14.70;;
78840;SDS011;68379;47.190;27.558;2024-03-02T11:53:49;23.80;;;14.30;;
78840;SDS011;68379;47.190;27.558;2024-03-02T11:56:22;28.40;;;13.40;;
78840;SDS011;68379;47.190;27.558;2024-03-02T11:58:56;27.80;;;13.40;;
78840;SDS011;68379;47.190;27.558;2024-03-02T12:01:29;34.40;;;15.70;;
78840;SDS011;68379;47.190;27.558;2024-03-02T12:04:03;28.30;;;15.10;;
78840;SDS011;68379;47.190;27.558;2024-03-02T12:06:36;26.20;;;13.60;;
78840;SDS011;68379;47.190;27.558;2024-03-02T12:09:11;26.70;;;14.20;;
78840;SDS011;68379;47.190;27.558;2024-03-02T12:14:13;27.30;;;13.10;;
78840;SDS011;68379;47.190;27.558;2024-03-02T12:16:45;27.80;;;14.70;;
78840;SDS011;68379;47.190;27.558;2024-03-02T12:19:19;25.30;;;13.40;;
78840;SDS011;68379;47.190;27.558;2024-03-02T12:21:51;29.10;;;14.00;;
78840;SDS011;68379;47.190;27.558;2024-03-02T12:24:23;27.10;;;14.20;;
78840;SDS011;68379;47.190;27.558;2024-03-02T12:26:57;27.70;;;13.50;;
78840;SDS011;68379;47.190;27.558;2024-03-02T12:29:28;31.10;;;14.40;;
78840;SDS011;68379;47.190;27.558;2024-03-02T12:32:00;28.60;;;14.50;;
78840;SDS011;68379;47.190;27.558;2024-03-02T12:34:32;27.60;;;13.90;;
78840;SDS011;68379;47.190;27.558;2024-03-02T12:37:04;27.40;;;14.40;;
78840;SDS011;68379;47.190;27.558;2024-03-02T12:39:35;22.60;;;13.50;;
78840;SDS011;68379;47.190;27.558;2024-03-02T12:42:09;25.40;;;12.60;;
78840;SDS011;68379;47.190;27.558;2024-03-02T12:44:41;21.90;;;13.00;;
78840;SDS011;68379;47.190;27.558;2024-03-02T12:47:12;28.60;;;13.60;;
78840;SDS011;68379;47.190;27.558;2024-03-02T12:49:44;24.70;;;13.50;;
78840;SDS011;68379;47.190;27.558;2024-03-02T12:52:15;30.50;;;15.20;;
78840;SDS011;68379;47.190;27.558;2024-03-02T12:54:47;27.10;;;13.70;;
78840;SDS011;68379;47.190;27.558;2024-03-02T12:57:20;28.30;;;14.30;;
78840;SDS011;68379;47.190;27.558;2024-03-02T13:02:28;27.00;;;13.40;;
78840;SDS011;68379;47.190;27.558;2024-03-02T13:05:02;24.40;;;13.70;;
78840;SDS011;68379;47.190;27.558;2024-03-02T13:07:39;29.10;;;14.10;;
78840;SDS011;68379;47.190;27.558;2024-03-02T13:10:13;30.20;;;15.10;;
78840;SDS011;68379;47.190;27.558;2024-03-02T13:12:46;26.10;;;14.00;;
78840;SDS011;68379;47.190;27.558;2024-03-02T13:15:18;29.90;;;15.20;;
78840;SDS011;68379;47.190;27.558;2024-03-02T13:17:50;27.70;;;12.70;;
78840;SDS011;68379;47.190;27.558;2024-03-02T13:20:23;26.10;;;13.80;;
78840;SDS011;68379;47.190;27.558;2024-03-02T13:23:00;23.50;;;12.20;;
78840;SDS011;68379;47.190;27.558;2024-03-02T13:25:31;24.90;;;12.50;;
78840;SDS011;68379;47.190;27.558;2024-03-02T13:28:04;24.80;;;12.50;;
78840;SDS011;68379;47.190;27.558;2024-03-02T13:30:37;21.50;;;11.20;;
78840;SDS011;68379;47.190;27.558;2024-03-02T13:33:08;28.30;;;13.20;;
78840;SDS011;68379;47.190;27.558;2024-03-02T13:35:40;22.30;;;11.40;;
78840;SDS011;68379;47.190;27.558;2024-03-02T13:38:13;25.00;;;12.30;;
78840;SDS011;68379;47.190;27.558;2024-03-02T13:40:45;24.30;;;12.40;;
78840;SDS011;68379;47.190;27.558;2024-03-02T13:43:19;23.00;;;11.60;;
78840;SDS011;68379;47.190;27.558;2024-03-02T13:45:52;23.90;;;12.20;;
78840;SDS011;68379;47.190;27.558;2024-03-02T13:48:24;25.30;;;13.40;;
78840;SDS011;68379;47.190;27.558;2024-03-02T13:50:55;26.80;;;12.60;;
78840;SDS011;68379;47.190;27.558;2024-03-02T13:53:29;21.90;;;12.40;;
78840;SDS011;68379;47.190;27.558;2024-03-02T13:56:04;21.70;;;12.30;;
78840;SDS011;68379;47.190;27.558;2024-03-02T13:58:39;22.50;;;11.80;;
78840;SDS011;68379;47.190;27.558;2024-03-02T14:01:12;22.50;;;11.60;;
78840;SDS011;68379;47.190;27.558;2024-03-02T14:03:45;28.70;;;12.90;;
78840;SDS011;68379;47.190;27.558;2024-03-02T14:06:17;28.60;;;13.30;;
78840;SDS011;68379;47.190;27.558;2024-03-02T14:08:49;24.80;;;12.80;;
78840;SDS011;68379;47.190;27.558;2024-03-02T14:11:20;29.40;;;13.40;;
78840;SDS011;68379;47.190;27.558;2024-03-02T14:13:52;26.50;;;14.20;;
78840;SDS011;68379;47.190;27.558;2024-03-02T14:16:24;26.50;;;14.00;;
78840;SDS011;68379;47.190;27.558;2024-03-02T14:18:57;26.70;;;14.70;;
78840;SDS011;68379;47.190;27.558;2024-03-02T14:21:29;25.60;;;13.50;;
78840;SDS011;68379;47.190;27.558;2024-03-02T14:24:02;27.00;;;14.20;;
78840;SDS011;68379;47.190;27.558;2024-03-02T14:26:36;26.20;;;13.40;;
78840;SDS011;68379;47.190;27.558;2024-03-02T14:29:08;25.50;;;13.40;;
78840;SDS011;68379;47.190;27.558;2024-03-02T14:31:43;25.60;;;13.40;;
78840;SDS011;68379;47.190;27.558;2024-03-02T14:34:16;26.00;;;12.20;;
78840;SDS011;68379;47.190;27.558;2024-03-02T14:36:48;25.00;;;13.00;;
78840;SDS011;68379;47.190;27.558;2024-03-02T14:39:21;27.10;;;14.30;;
78840;SDS011;68379;47.190;27.558;2024-03-02T14:41:53;26.50;;;13.30;;
78840;SDS011;68379;47.190;27.558;2024-03-02T14:44:25;28.20;;;14.60;;
78840;SDS011;68379;47.190;27.558;2024-03-02T14:46:57;25.30;;;13.80;;
78840;SDS011;68379;47.190;27.558;2024-03-02T14:49:29;26.40;;;15.00;;
78840;SDS011;68379;47.190;27.558;2024-03-02T14:52:01;27.10;;;14.60;;
78840;SDS011;68379;47.190;27.558;2024-03-02T14:54:34;26.50;;;14.40;;
78840;SDS011;68379;47.190;27.558;2024-03-02T14:57:06;25.20;;;14.50;;
78840;SDS011;68379;47.190;27.558;2024-03-02T14:59:38;29.30;;;14.30;;
78840;SDS011;68379;47.190;27.558;2024-03-02T15:02:10;34.80;;;18.30;;
78840;SDS011;68379;47.190;27.558;2024-03-02T15:04:42;36.10;;;18.70;;
78840;SDS011;68379;47.190;27.558;2024-03-02T15:07:16;31.90;;;16.40;;